Time;durP1;ratioP1;P1;durP2;ratioP2;P2;SDS_P1;SDS_P2;PMS_P1;PMS_P2;Temp;Humidity;BMP_temperature;BMP_pressure;BME280_temperature;BME280_humidity;BME280_pressure;Samples;Min_cycle;Max_cycle;Signal;HPM_P1;HPM_P2
2023/05/29 00:01:56;;;;;;;5.70;2.63;;;;;;;;;;5060324;28;20115;-56
2023/05/29 00:04:23;;;;;;;9.35;2.50;;;;;;;;;;5060466;28;20049;-58
2023/05/29 00:06:50;;;;;;;12.65;3.03;;;;;;;;;;5053309;28;20590;-57
2023/05/29 00:09:17;;;;;;;8.27;1.90;;;;;;;;;;5053548;28;20064;-57
2023/05/29 00:11:43;;;;;;;10.95;4.30;;;;;;;;;;5053300;28;20104;-57
2023/05/29 00:14:13;;;;;;;6.57;2.28;;;;;;;;;;5047732;28;20081;-56
2023/05/29 00:16:40;;;;;;;5.45;2.08;;;;;;;;;;5045337;28;20434;-56
2023/05/29 00:19:06;;;;;;;6.13;2.88;;;;;;;;;;5059117;28;20079;-57
2023/05/29 00:21:33;;;;;;;5.68;1.67;;;;;;;;;;5056771;28;20061;-55
2023/05/29 00:23:59;;;;;;;8.48;2.55;;;;;;;;;;5047972;28;20057;-57
2023/05/29 00:26:25;;;;;;;7.40;2.08;;;;;;;;;;5057876;28;20608;-52
2023/05/29 00:28:52;;;;;;;15.10;2.45;;;;;;;;;;5059870;28;20056;-58
2023/05/29 00:31:18;;;;;;;6.97;1.83;;;;;;;;;;5049548;28;20512;-56
2023/05/29 00:33:45;;;;;;;8.43;2.05;;;;;;;;;;5046828;28;20091;-55
2023/05/29 00:36:11;;;;;;;8.65;1.58;;;;;;;;;;5056717;28;20057;-56
2023/05/29 00:38:37;;;;;;;5.10;1.70;;;;;;;;;;5064619;28;20045;-58
2023/05/29 00:41:04;;;;;;;7.55;1.90;;;;;;;;;;5057360;28;20057;-56
2023/05/29 00:43:31;;;;;;;7.35;1.33;;;;;;;;;;5034617;28;20060;-55
2023/05/29 00:45:57;;;;;;;6.00;1.30;;;;;;;;;;5043726;28;20492;-56
2023/05/29 00:48:25;;;;;;;6.70;1.77;;;;;;;;;;5040881;28;20434;-55
2023/05/29 00:50:51;;;;;;;8.25;1.50;;;;;;;;;;5040490;28;20148;-54
2023/05/29 00:53:18;;;;;;;7.65;2.13;;;;;;;;;;5029090;28;20057;-58
2023/05/29 00:55:45;;;;;;;4.30;1.13;;;;;;;;;;5035657;28;20065;-55
2023/05/29 00:58:11;;;;;;;7.30;1.80;;;;;;;;;;5035134;28;20108;-54
2023/05/29 01:00:38;;;;;;;6.47;2.10;;;;;;;;;;5029476;28;20823;-58
2023/05/29 01:03:06;;;;;;;6.68;1.95;;;;;;;;;;5038774;28;20097;-56
2023/05/29 01:05:34;;;;;;;8.82;1.60;;;;;;;;;;5036851;28;20046;-57
2023/05/29 01:08:01;;;;;;;13.13;2.20;;;;;;;;;;5043363;28;20081;-56
2023/05/29 01:10:28;;;;;;;8.77;2.05;;;;;;;;;;5041697;28;20094;-58
2023/05/29 01:12:54;;;;;;;7.20;1.80;;;;;;;;;;5040978;28;20053;-58
2023/05/29 01:15:30;;;;;;;8.38;1.98;;;;;;;;;;5043872;28;20053;-55
2023/05/29 01:18:17;;;;;;;9.43;2.10;;;;;;;;;;5028327;28;20061;-56
2023/05/29 01:20:56;;;;;;;8.02;1.95;;;;;;;;;;5031273;28;20061;-57
2023/05/29 01:23:35;;;;;;;6.95;1.60;;;;;;;;;;5044283;28;20111;-56
2023/05/29 01:26:17;;;;;;;2.42;1.25;;;;;;;;;;5040548;28;20553;-56
2023/05/29 01:28:47;;;;;;;4.75;1.67;;;;;;;;;;5040629;28;20108;-56
2023/05/29 01:31:16;;;;;;;8.38;2.63;;;;;;;;;;5038325;28;20101;-58
2023/05/29 01:33:42;;;;;;;10.13;1.83;;;;;;;;;;5028905;28;20466;-55
2023/05/29 01:36:09;;;;;;;2.72;1.27;;;;;;;;;;5038067;28;20672;-58
2023/05/29 01:38:35;;;;;;;7.40;1.02;;;;;;;;;;5040614;28;20104;-56
2023/05/29 01:41:02;;;;;;;9.43;1.90;;;;;;;;;;5040821;28;20068;-55
2023/05/29 01:43:30;;;;;;;10.07;2.08;;;;;;;;;;5059949;28;20538;-56
2023/05/29 01:45:57;;;;;;;5.45;1.33;;;;;;;;;;5062024;28;20045;-53
2023/05/29 01:48:24;;;;;;;3.88;1.13;;;;;;;;;;5061072;28;20099;-55
2023/05/29 01:50:50;;;;;;;9.63;1.35;;;;;;;;;;5063378;28;20087;-54
2023/05/29 01:53:17;;;;;;;7.95;1.92;;;;;;;;;;5059794;28;21208;-56
2023/05/29 01:55:43;;;;;;;7.00;1.83;;;;;;;;;;5061531;28;20561;-56
2023/05/29 01:58:10;;;;;;;8.88;2.42;;;;;;;;;;5059502;28;20826;-54
2023/05/29 02:00:36;;;;;;;6.00;1.77;;;;;;;;;;5059345;28;20053;-57
2023/05/29 02:03:03;;;;;;;7.03;1.20;;;;;;;;;;5050898;28;20164;-53
2023/05/29 02:05:29;;;;;;;6.90;1.65;;;;;;;;;;5048860;28;20072;-58
2023/05/29 02:07:56;;;;;;;6.55;1.65;;;;;;;;;;5063905;28;20132;-58
2023/05/29 02:10:22;;;;;;;6.90;1.20;;;;;;;;;;5060246;28;20053;-58
2023/05/29 02:12:48;;;;;;;2.47;1.27;;;;;;;;;;5058302;28;20046;-58
2023/05/29 02:15:15;;;;;;;3.05;1.58;;;;;;;;;;5045497;28;20503;-55
2023/05/29 02:17:41;;;;;;;9.55;2.42;;;;;;;;;;5057659;28;20061;-55
2023/05/29 02:20:08;;;;;;;4.82;1.92;;;;;;;;;;5060856;28;20522;-56
2023/05/29 02:22:34;;;;;;;5.13;1.65;;;;;;;;;;5053920;28;20100;-56
2023/05/29 02:25:01;;;;;;;6.25;2.20;;;;;;;;;;5058182;28;20108;-57
2023/05/29 02:27:27;;;;;;;7.07;1.83;;;;;;;;;;5063784;28;20104;-55
2023/05/29 02:29:53;;;;;;;5.28;1.90;;;;;;;;;;5061711;28;20138;-57
2023/05/29 02:32:20;;;;;;;10.23;2.53;;;;;;;;;;5056858;28;20049;-54
2023/05/29 02:34:46;;;;;;;4.38;1.10;;;;;;;;;;5062885;28;20060;-57
2023/05/29 02:37:12;;;;;;;8.27;1.45;;;;;;;;;;5061296;28;20138;-54
2023/05/29 02:39:39;;;;;;;6.00;1.63;;;;;;;;;;5062001;28;20060;-56
2023/05/29 02:42:06;;;;;;;6.50;2.13;;;;;;;;;;5059521;28;20067;-54
2023/05/29 02:44:32;;;;;;;9.35;1.92;;;;;;;;;;5080626;28;20539;-58
2023/05/29 02:46:59;;;;;;;4.57;1.45;;;;;;;;;;5059033;28;20060;-58
2023/05/29 02:49:25;;;;;;;7.57;1.63;;;;;;;;;;5046071;28;20054;-57
2023/05/29 02:51:56;;;;;;;4.82;1.35;;;;;;;;;;5058345;28;20051;-57
2023/05/29 02:54:23;;;;;;;3.20;1.40;;;;;;;;;;5063388;28;20064;-58
2023/05/29 02:56:50;;;;;;;8.10;1.73;;;;;;;;;;5062138;28;20055;-58
2023/05/29 02:59:16;;;;;;;3.72;1.40;;;;;;;;;;5055521;28;20085;-57
2023/05/29 03:01:42;;;;;;;9.63;1.73;;;;;;;;;;5059789;28;20055;-57
2023/05/29 03:04:12;;;;;;;9.55;1.65;;;;;;;;;;5058632;28;20138;-58
2023/05/29 03:06:38;;;;;;;12.02;2.10;;;;;;;;;;5058574;28;20084;-57
2023/05/29 03:09:05;;;;;;;5.07;1.13;;;;;;;;;;5043462;28;20053;-56
2023/05/29 03:11:32;;;;;;;9.07;1.55;;;;;;;;;;5057876;28;20060;-57
2023/05/29 03:13:59;;;;;;;3.42;1.48;;;;;;;;;;5056880;28;20135;-57
2023/05/29 03:16:29;;;;;;;8.13;1.42;;;;;;;;;;5063485;28;20611;-57
2023/05/29 03:18:55;;;;;;;6.45;2.08;;;;;;;;;;5054781;28;20060;-58
2023/05/29 03:21:22;;;;;;;6.60;1.85;;;;;;;;;;5055448;28;20119;-58
2023/05/29 03:23:48;;;;;;;12.05;1.90;;;;;;;;;;5058087;28;20134;-56
2023/05/29 03:26:15;;;;;;;5.18;1.38;;;;;;;;;;5061171;28;20132;-54
2023/05/29 03:28:42;;;;;;;10.00;1.35;;;;;;;;;;5062505;28;20057;-56
2023/05/29 03:31:08;;;;;;;6.63;1.95;;;;;;;;;;5060934;28;20138;-57
2023/05/29 03:33:38;;;;;;;5.30;1.40;;;;;;;;;;5058779;28;20056;-58
2023/05/29 03:36:05;;;;;;;8.13;1.60;;;;;;;;;;5057395;28;20399;-57
2023/05/29 03:38:31;;;;;;;5.05;1.73;;;;;;;;;;5061602;28;20081;-57
2023/05/29 03:40:57;;;;;;;5.10;1.30;;;;;;;;;;5061236;28;20574;-55
2023/05/29 03:43:24;;;;;;;4.60;1.02;;;;;;;;;;5062001;28;20136;-57
2023/05/29 03:45:50;;;;;;;4.57;2.30;;;;;;;;;;5062912;28;20429;-57
2023/05/29 03:48:16;;;;;;;9.88;1.55;;;;;;;;;;5051508;28;20107;-58
2023/05/29 03:50:44;;;;;;;4.03;1.70;;;;;;;;;;5059625;28;21169;-58
2023/05/29 03:53:10;;;;;;;13.82;1.95;;;;;;;;;;5065013;28;20049;-55
2023/05/29 03:55:37;;;;;;;5.47;1.60;;;;;;;;;;5064223;28;20491;-51
2023/05/29 03:58:03;;;;;;;4.47;1.63;;;;;;;;;;5062790;28;20838;-55
2023/05/29 04:00:30;;;;;;;8.13;2.25;;;;;;;;;;5064715;28;20057;-57
2023/05/29 04:02:56;;;;;;;6.18;1.65;;;;;;;;;;5052378;28;20050;-57
2023/05/29 04:05:23;;;;;;;7.18;1.30;;;;;;;;;;5055729;28;20052;-54
2023/05/29 04:07:49;;;;;;;9.88;1.65;;;;;;;;;;5063824;28;20060;-57
2023/05/29 04:10:16;;;;;;;6.97;2.25;;;;;;;;;;5073672;28;20521;-52
2023/05/29 04:12:42;;;;;;;8.77;1.67;;;;;;;;;;5061602;28;20095;-55
2023/05/29 04:15:09;;;;;;;6.50;1.42;;;;;;;;;;5045870;28;20125;-55
2023/05/29 04:17:35;;;;;;;5.22;1.80;;;;;;;;;;5058847;28;20149;-53
2023/05/29 04:20:07;;;;;;;5.13;1.70;;;;;;;;;;5059949;28;20879;-56
2023/05/29 04:22:37;;;;;;;7.40;1.27;;;;;;;;;;5052747;28;20646;-56
2023/05/29 04:25:04;;;;;;;5.90;1.35;;;;;;;;;;5057095;28;20056;-57
2023/05/29 04:27:32;;;;;;;6.78;1.88;;;;;;;;;;5063056;28;20049;-55
2023/05/29 04:29:58;;;;;;;8.52;2.13;;;;;;;;;;5064258;28;20538;-56
2023/05/29 04:32:26;;;;;;;6.00;1.40;;;;;;;;;;5057223;28;20049;-56
2023/05/29 04:34:52;;;;;;;8.00;2.42;;;;;;;;;;5055216;28;20060;-55
2023/05/29 04:37:21;;;;;;;5.60;1.50;;;;;;;;;;5054501;28;20585;-56
2023/05/29 04:39:48;;;;;;;9.55;1.58;;;;;;;;;;5057317;28;20064;-57
2023/05/29 04:42:15;;;;;;;6.38;1.25;;;;;;;;;;5062431;28;20875;-56
2023/05/29 04:44:43;;;;;;;2.70;1.15;;;;;;;;;;5046488;28;20054;-56
2023/05/29 04:47:09;;;;;;;5.88;1.50;;;;;;;;;;5061266;28;20053;-54
2023/05/29 04:49:35;;;;;;;6.60;1.73;;;;;;;;;;5065266;28;20056;-56
2023/05/29 04:52:05;;;;;;;4.65;1.60;;;;;;;;;;5064828;28;20053;-56
2023/05/29 04:54:33;;;;;;;6.53;1.25;;;;;;;;;;5064962;28;20053;-58
2023/05/29 04:57:00;;;;;;;4.85;1.48;;;;;;;;;;5064757;28;20053;-58
2023/05/29 04:59:26;;;;;;;7.70;1.92;;;;;;;;;;5064655;28;20057;-57
2023/05/29 05:01:53;;;;;;;7.88;1.23;;;;;;;;;;5063404;28;20064;-57
2023/05/29 05:04:20;;;;;;;7.28;1.80;;;;;;;;;;5065031;28;20045;-56
2023/05/29 05:06:46;;;;;;;9.27;2.90;;;;;;;;;;5065641;28;20064;-57
2023/05/29 05:09:12;;;;;;;4.68;1.55;;;;;;;;;;5065344;28;20680;-56
2023/05/29 05:11:39;;;;;;;7.53;1.95;;;;;;;;;;5065408;28;20060;-55
2023/05/29 05:14:05;;;;;;;6.68;2.58;;;;;;;;;;5064411;28;20678;-56
2023/05/29 05:16:33;;;;;;;7.88;1.65;;;;;;;;;;5063723;28;20322;-56
2023/05/29 05:18:59;;;;;;;10.93;1.95;;;;;;;;;;5060698;28;20106;-56
2023/05/29 05:21:26;;;;;;;6.78;1.42;;;;;;;;;;5064133;28;20057;-55
2023/05/29 05:23:52;;;;;;;4.88;1.77;;;;;;;;;;5064670;28;20049;-55
2023/05/29 05:26:26;;;;;;;12.45;1.50;;;;;;;;;;5064766;28;20061;-57
2023/05/29 05:28:53;;;;;;;4.30;1.95;;;;;;;;;;5044813;28;20053;-58
2023/05/29 05:31:19;;;;;;;8.85;1.65;;;;;;;;;;5058722;28;20103;-57
2023/05/29 05:33:46;;;;;;;8.18;1.42;;;;;;;;;;5063652;28;20057;-57
2023/05/29 05:36:12;;;;;;;7.47;1.83;;;;;;;;;;5050270;28;20095;-57
2023/05/29 05:38:39;;;;;;;6.82;1.58;;;;;;;;;;5062105;28;20063;-57
2023/05/29 05:41:05;;;;;;;10.13;3.05;;;;;;;;;;5063996;28;20095;-57
2023/05/29 05:43:32;;;;;;;5.40;1.70;;;;;;;;;;5056742;28;20479;-57
2023/05/29 05:45:58;;;;;;;4.20;1.27;;;;;;;;;;5062935;28;20574;-58
2023/05/29 05:48:24;;;;;;;7.15;1.98;;;;;;;;;;5058802;28;20079;-58
2023/05/29 05:50:51;;;;;;;5.28;1.90;;;;;;;;;;5062486;28;20152;-58
2023/05/29 05:53:17;;;;;;;7.03;2.05;;;;;;;;;;5059889;28;20056;-56
2023/05/29 05:55:44;;;;;;;8.45;1.75;;;;;;;;;;5061149;28;20080;-58
2023/05/29 05:58:11;;;;;;;3.72;1.50;;;;;;;;;;5063380;28;20562;-56
2023/05/29 06:00:37;;;;;;;10.40;2.20;;;;;;;;;;5060942;28;20145;-56
2023/05/29 06:03:03;;;;;;;2.35;1.50;;;;;;;;;;5059251;28;20497;-55
2023/05/29 06:05:30;;;;;;;4.68;1.92;;;;;;;;;;5053286;28;20053;-57
2023/05/29 06:07:57;;;;;;;4.47;1.42;;;;;;;;;;5062561;28;20064;-56
2023/05/29 06:10:23;;;;;;;9.45;1.63;;;;;;;;;;5062221;28;20044;-56
2023/05/29 06:12:49;;;;;;;6.25;1.50;;;;;;;;;;5063090;28;20057;-57
2023/05/29 06:15:16;;;;;;;9.57;1.73;;;;;;;;;;5059221;28;20139;-57
2023/05/29 06:17:42;;;;;;;2.75;1.25;;;;;;;;;;5061487;28;20106;-57
2023/05/29 06:20:10;;;;;;;7.10;1.45;;;;;;;;;;5061587;28;20064;-57
2023/05/29 06:22:37;;;;;;;3.72;1.45;;;;;;;;;;5051972;28;20079;-54
2023/05/29 06:25:03;;;;;;;2.78;1.25;;;;;;;;;;5057099;28;20573;-54
2023/05/29 06:27:32;;;;;;;4.78;1.58;;;;;;;;;;5061573;28;20056;-58
2023/05/29 06:29:58;;;;;;;5.38;1.63;;;;;;;;;;5065011;28;20529;-55
2023/05/29 06:32:25;;;;;;;14.70;1.95;;;;;;;;;;5057512;28;20064;-57
2023/05/29 06:34:51;;;;;;;7.47;2.05;;;;;;;;;;5058910;28;20415;-58
2023/05/29 06:37:18;;;;;;;6.10;1.70;;;;;;;;;;5059173;28;20462;-59
2023/05/29 06:39:45;;;;;;;7.55;1.60;;;;;;;;;;5060194;28;20464;-56
2023/05/29 06:42:11;;;;;;;7.65;2.03;;;;;;;;;;5075297;28;20053;-56
2023/05/29 06:44:38;;;;;;;3.67;1.52;;;;;;;;;;5062839;28;20064;-59
2023/05/29 06:47:05;;;;;;;9.65;1.88;;;;;;;;;;5053433;28;20127;-53
2023/05/29 06:49:31;;;;;;;3.53;1.42;;;;;;;;;;5055198;28;20049;-56
2023/05/29 06:51:58;;;;;;;3.38;1.10;;;;;;;;;;5053058;28;20053;-57
2023/05/29 06:54:24;;;;;;;6.18;1.52;;;;;;;;;;5058150;28;20049;-57
2023/05/29 06:56:51;;;;;;;10.52;1.98;;;;;;;;;;5062940;28;20053;-53
2023/05/29 06:59:35;;;;;;;3.17;1.48;;;;;;;;;;5050300;28;20144;-55
2023/05/29 07:02:01;;;;;;;2.92;1.27;;;;;;;;;;5060970;28;20057;-56
2023/05/29 07:04:28;;;;;;;4.75;1.50;;;;;;;;;;5060854;28;20091;-56
2023/05/29 07:06:54;;;;;;;1.63;1.00;;;;;;;;;;5060784;28;20111;-54
2023/05/29 07:09:20;;;;;;;6.07;1.33;;;;;;;;;;5049717;28;20947;-53
2023/05/29 07:11:47;;;;;;;6.20;1.42;;;;;;;;;;5060739;28;20052;-53
2023/05/29 07:14:14;;;;;;;13.23;2.13;;;;;;;;;;5063245;28;20060;-58
2023/05/29 07:16:40;;;;;;;10.15;1.83;;;;;;;;;;5048633;28;20111;-56
2023/05/29 07:19:06;;;;;;;4.55;1.13;;;;;;;;;;5042371;28;20140;-57
2023/05/29 07:21:44;;;;;;;11.05;1.90;;;;;;;;;;5058217;28;20055;-54
2023/05/29 07:24:12;;;;;;;6.40;1.75;;;;;;;;;;5048842;28;20081;-57
2023/05/29 07:26:38;;;;;;;3.42;1.35;;;;;;;;;;5046017;28;20058;-53
2023/05/29 07:29:05;;;;;;;4.57;1.30;;;;;;;;;;5054366;28;20056;-56
2023/05/29 07:31:31;;;;;;;6.03;1.35;;;;;;;;;;5065456;28;20188;-57
2023/05/29 07:33:57;;;;;;;3.10;1.27;;;;;;;;;;5064996;28;20116;-57
2023/05/29 07:36:28;;;;;;;4.93;1.38;;;;;;;;;;5065423;28;20133;-54
2023/05/29 07:38:58;;;;;;;3.40;1.25;;;;;;;;;;5065738;28;20398;-55
2023/05/29 07:41:26;;;;;;;3.90;1.20;;;;;;;;;;5066062;28;20518;-56
2023/05/29 07:43:52;;;;;;;3.90;1.88;;;;;;;;;;5066441;28;20049;-52
2023/05/29 07:46:19;;;;;;;5.00;1.92;;;;;;;;;;5066573;28;20053;-54
2023/05/29 07:48:46;;;;;;;6.00;2.75;;;;;;;;;;5066737;28;20053;-56
2023/05/29 07:51:13;;;;;;;3.70;1.13;;;;;;;;;;5066088;28;20057;-57
2023/05/29 07:53:39;;;;;;;6.78;1.58;;;;;;;;;;5066294;28;20635;-55
2023/05/29 07:56:06;;;;;;;5.25;1.88;;;;;;;;;;5066619;28;20049;-51
2023/05/29 07:58:33;;;;;;;14.15;2.10;;;;;;;;;;5065784;28;20049;-54
2023/05/29 08:00:59;;;;;;;8.38;1.60;;;;;;;;;;5066188;28;20545;-56
2023/05/29 08:03:25;;;;;;;7.03;2.10;;;;;;;;;;5064739;28;20057;-57
2023/05/29 08:05:52;;;;;;;8.63;1.55;;;;;;;;;;5065211;28;20080;-55
2023/05/29 08:08:19;;;;;;;3.88;1.45;;;;;;;;;;5055266;28;20132;-56
2023/05/29 08:10:45;;;;;;;6.47;1.98;;;;;;;;;;5065979;28;20053;-55
2023/05/29 08:13:12;;;;;;;2.05;1.13;;;;;;;;;;5065884;28;20057;-55
2023/05/29 08:15:38;;;;;;;6.88;1.90;;;;;;;;;;5066242;28;20053;-55
2023/05/29 08:18:04;;;;;;;5.72;1.90;;;;;;;;;;5065012;28;20139;-52
2023/05/29 08:20:31;;;;;;;9.30;1.92;;;;;;;;;;5066223;28;20057;-56
2023/05/29 08:22:57;;;;;;;3.92;1.10;;;;;;;;;;5065870;28;20052;-57
2023/05/29 08:25:24;;;;;;;4.47;1.83;;;;;;;;;;5065315;28;20599;-56
2023/05/29 08:27:50;;;;;;;7.18;1.67;;;;;;;;;;5066526;28;20057;-56
2023/05/29 08:30:17;;;;;;;4.70;1.85;;;;;;;;;;5066310;28;20628;-53
2023/05/29 08:32:43;;;;;;;6.82;1.70;;;;;;;;;;5064551;28;20060;-55
2023/05/29 08:35:09;;;;;;;6.07;1.40;;;;;;;;;;5065025;28;20135;-56
2023/05/29 08:37:36;;;;;;;4.60;1.70;;;;;;;;;;5066092;28;20057;-56
2023/05/29 08:40:07;;;;;;;5.95;1.35;;;;;;;;;;5065576;28;20057;-59
2023/05/29 08:42:36;;;;;;;4.07;1.58;;;;;;;;;;5065144;28;20111;-53
2023/05/29 08:45:04;;;;;;;6.05;1.45;;;;;;;;;;5064919;28;20053;-51
2023/05/29 08:47:32;;;;;;;2.17;1.13;;;;;;;;;;5051765;28;20049;-55
2023/05/29 08:50:00;;;;;;;7.30;1.42;;;;;;;;;;5085307;28;20568;-55
2023/05/29 08:52:27;;;;;;;3.38;1.13;;;;;;;;;;5086366;28;20059;-52
2023/05/29 08:54:54;;;;;;;3.60;1.48;;;;;;;;;;5086093;28;20048;-57
2023/05/29 08:57:21;;;;;;;6.88;1.63;;;;;;;;;;5085206;28;20589;-57
2023/05/29 08:59:51;;;;;;;5.57;1.67;;;;;;;;;;5081491;28;20531;-55
2023/05/29 09:02:17;;;;;;;1.83;1.30;;;;;;;;;;5065134;28;20951;-56
2023/05/29 09:04:52;;;;;;;5.70;1.88;;;;;;;;;;5063995;28;20053;-56
2023/05/29 09:07:19;;;;;;;5.00;1.50;;;;;;;;;;5064582;28;20053;-57
2023/05/29 09:09:46;;;;;;;1.40;1.00;;;;;;;;;;5065158;28;20084;-55
2023/05/29 09:12:12;;;;;;;4.00;1.52;;;;;;;;;;5065371;28;20152;-56
2023/05/29 09:14:40;;;;;;;6.90;2.05;;;;;;;;;;5065133;28;20080;-57
2023/05/29 09:17:08;;;;;;;5.90;1.50;;;;;;;;;;5064516;28;20119;-56
2023/05/29 09:19:35;;;;;;;4.63;1.55;;;;;;;;;;5064948;28;20535;-55
2023/05/29 09:22:03;;;;;;;7.93;1.55;;;;;;;;;;5064915;28;20053;-57
2023/05/29 09:24:31;;;;;;;5.13;2.47;;;;;;;;;;5065129;28;20055;-57
2023/05/29 09:27:01;;;;;;;2.50;1.30;;;;;;;;;;5066297;28;20664;-57
2023/05/29 09:29:30;;;;;;;5.85;1.95;;;;;;;;;;5066511;28;20444;-53
2023/05/29 09:31:57;;;;;;;4.13;1.17;;;;;;;;;;5064696;28;20084;-56
2023/05/29 09:34:27;;;;;;;6.63;1.85;;;;;;;;;;5071771;28;20592;-55
2023/05/29 09:37:02;;;;;;;2.70;0.95;;;;;;;;;;5065456;28;20076;-57
2023/05/29 09:39:28;;;;;;;;;;;;;;;;;;5051915;28;20135;-59
2023/05/29 09:41:55;;;;;;;4.60;1.58;;;;;;;;;;5059162;28;46923;-59
2023/05/29 09:44:21;;;;;;;6.30;1.52;;;;;;;;;;5062485;28;20132;-56
2023/05/29 09:46:48;;;;;;;12.25;2.20;;;;;;;;;;5064734;28;20053;-58
2023/05/29 09:49:16;;;;;;;5.65;1.95;;;;;;;;;;5064362;28;20434;-58
2023/05/29 09:51:47;;;;;;;3.90;1.42;;;;;;;;;;5055694;28;20061;-55
2023/05/29 09:54:17;;;;;;;7.15;1.83;;;;;;;;;;5044107;28;20563;-55
2023/05/29 09:56:44;;;;;;;4.75;1.55;;;;;;;;;;5066917;28;20064;-55
2023/05/29 09:59:10;;;;;;;5.70;1.85;;;;;;;;;;5066956;28;20557;-61
2023/05/29 10:01:39;;;;;;;2.33;1.23;;;;;;;;;;5070729;28;20515;-56
2023/05/29 10:04:05;;;;;;;3.00;1.40;;;;;;;;;;5063006;28;20529;-56
2023/05/29 10:06:32;;;;;;;6.65;1.75;;;;;;;;;;5072378;28;20102;-58
2023/05/29 10:09:00;;;;;;;8.45;1.85;;;;;;;;;;5064211;28;20060;-57
2023/05/29 10:11:27;;;;;;;7.47;2.03;;;;;;;;;;5064195;28;20053;-53
2023/05/29 10:13:53;;;;;;;7.10;1.70;;;;;;;;;;5063712;28;20149;-58
2023/05/29 10:16:23;;;;;;;2.20;1.23;;;;;;;;;;5063622;28;20087;-57
2023/05/29 10:18:54;;;;;;;3.92;1.90;;;;;;;;;;5047849;28;20065;-54
2023/05/29 10:21:20;;;;;;;4.22;1.65;;;;;;;;;;5061698;28;20418;-58
2023/05/29 10:23:48;;;;;;;3.10;1.17;;;;;;;;;;5051404;28;20064;-55
2023/05/29 10:26:18;;;;;;;3.80;1.58;;;;;;;;;;5043932;28;20065;-57
2023/05/29 10:28:48;;;;;;;3.65;1.77;;;;;;;;;;5063721;28;20418;-56
2023/05/29 10:31:18;;;;;;;5.15;1.73;;;;;;;;;;5063575;28;20053;-57
2023/05/29 10:33:47;;;;;;;5.00;1.60;;;;;;;;;;5052163;28;20049;-55
2023/05/29 10:36:16;;;;;;;6.18;2.63;;;;;;;;;;5062238;28;20064;-54
2023/05/29 10:38:44;;;;;;;6.57;2.28;;;;;;;;;;5064046;28;20572;-56
2023/05/29 10:41:26;;;;;;;5.93;1.80;;;;;;;;;;5062685;28;20059;-55
2023/05/29 10:43:56;;;;;;;5.13;1.92;;;;;;;;;;5064779;28;20061;-55
2023/05/29 10:46:41;;;;;;;5.05;1.85;;;;;;;;;;5065684;28;20053;-56
2023/05/29 10:49:21;;;;;;;5.47;2.15;;;;;;;;;;5046508;28;20052;-57
2023/05/29 10:51:48;;;;;;;6.32;1.95;;;;;;;;;;5060160;28;20064;-56
2023/05/29 10:54:14;;;;;;;6.63;2.05;;;;;;;;;;5063841;28;20064;-56
2023/05/29 10:56:41;;;;;;;6.03;1.95;;;;;;;;;;5062508;28;20061;-56
2023/05/29 10:59:08;;;;;;;3.10;1.40;;;;;;;;;;5061081;28;20053;-55
2023/05/29 11:01:38;;;;;;;5.18;1.98;;;;;;;;;;5061336;28;20505;-57
2023/05/29 11:04:26;;;;;;;6.40;2.08;;;;;;;;;;5063365;28;20904;-54
2023/05/29 11:06:53;;;;;;;3.60;1.48;;;;;;;;;;5067420;28;20053;-55
2023/05/29 11:09:28;;;;;;;4.10;1.70;;;;;;;;;;5063493;28;20434;-57
2023/05/29 11:12:13;;;;;;;7.05;2.15;;;;;;;;;;5058584;28;20140;-56
2023/05/29 11:14:53;;;;;;;5.43;1.67;;;;;;;;;;5062890;28;20064;-54
2023/05/29 11:17:33;;;;;;;5.57;1.75;;;;;;;;;;5063150;28;20088;-56
2023/05/29 11:20:05;;;;;;;8.60;2.20;;;;;;;;;;5061715;28;20158;-58
2023/05/29 11:22:38;;;;;;;4.30;2.28;;;;;;;;;;5062507;28;20077;-52
2023/05/29 11:25:05;;;;;;;3.67;1.60;;;;;;;;;;5061256;28;20088;-57
2023/05/29 11:27:31;;;;;;;4.53;1.85;;;;;;;;;;5062636;28;20143;-58
2023/05/29 11:29:58;;;;;;;11.32;2.10;;;;;;;;;;5062063;28;20055;-58
2023/05/29 11:32:27;;;;;;;5.00;1.60;;;;;;;;;;5063402;28;20065;-58
2023/05/29 11:34:56;;;;;;;5.72;2.38;;;;;;;;;;5063377;28;20134;-57
2023/05/29 11:37:23;;;;;;;8.60;2.22;;;;;;;;;;5047020;28;20042;-54
2023/05/29 11:39:50;;;;;;;3.45;1.83;;;;;;;;;;5042991;28;20361;-56
2023/05/29 11:42:17;;;;;;;4.50;1.60;;;;;;;;;;5051802;28;20129;-56
2023/05/29 11:44:43;;;;;;;4.40;1.58;;;;;;;;;;5062393;28;20057;-51
2023/05/29 11:47:10;;;;;;;3.38;1.50;;;;;;;;;;5062520;28;20165;-54
2023/05/29 11:49:37;;;;;;;2.70;1.33;;;;;;;;;;5063317;28;20052;-57
2023/05/29 11:52:07;;;;;;;5.95;2.05;;;;;;;;;;5060560;28;20107;-56
2023/05/29 11:54:46;;;;;;;4.60;1.83;;;;;;;;;;5061863;28;20064;-53
2023/05/29 11:57:20;;;;;;;4.72;2.03;;;;;;;;;;5059398;28;20049;-55
2023/05/29 11:59:47;;;;;;;3.67;1.98;;;;;;;;;;5062632;28;20135;-53
2023/05/29 12:02:14;;;;;;;4.35;1.13;;;;;;;;;;5062682;28;20144;-56
2023/05/29 12:04:40;;;;;;;5.93;1.77;;;;;;;;;;5062945;28;20067;-55
2023/05/29 12:07:17;;;;;;;5.82;1.88;;;;;;;;;;5062463;28;20089;-55
2023/05/29 12:09:44;;;;;;;6.18;1.60;;;;;;;;;;5062388;28;20053;-54
2023/05/29 12:12:10;;;;;;;3.22;1.60;;;;;;;;;;5063852;28;20057;-53
2023/05/29 12:14:36;;;;;;;2.33;1.48;;;;;;;;;;5065899;28;20548;-58
2023/05/29 12:17:04;;;;;;;4.78;2.28;;;;;;;;;;5065732;28;20507;-58
2023/05/29 12:19:31;;;;;;;5.00;1.83;;;;;;;;;;5065905;28;20148;-57
2023/05/29 12:21:57;;;;;;;9.65;2.00;;;;;;;;;;5065708;28;20156;-57
2023/05/29 12:24:24;;;;;;;5.15;2.10;;;;;;;;;;5065197;28;20103;-57
2023/05/29 12:27:07;;;;;;;3.78;2.35;;;;;;;;;;5065388;28;20102;-58
2023/05/29 12:29:33;;;;;;;4.90;1.45;;;;;;;;;;5065465;28;20144;-57
2023/05/29 12:32:00;;;;;;;2.67;1.42;;;;;;;;;;5065247;28;20095;-58
2023/05/29 12:34:26;;;;;;;3.60;1.33;;;;;;;;;;5065907;28;20048;-58
2023/05/29 12:36:53;;;;;;;5.32;1.85;;;;;;;;;;5066474;28;20876;-55
2023/05/29 12:39:19;;;;;;;6.55;1.92;;;;;;;;;;5060264;28;20108;-55
2023/05/29 12:41:46;;;;;;;6.63;2.65;;;;;;;;;;5044690;28;20527;-58
2023/05/29 12:44:12;;;;;;;8.15;2.00;;;;;;;;;;5045716;28;20045;-57
2023/05/29 12:46:40;;;;;;;4.40;2.08;;;;;;;;;;5051620;28;20084;-56
2023/05/29 12:49:13;;;;;;;4.05;1.58;;;;;;;;;;5065695;28;20183;-57
2023/05/29 12:51:41;;;;;;;3.08;1.38;;;;;;;;;;5065679;28;20056;-58
2023/05/29 12:54:09;;;;;;;7.30;1.73;;;;;;;;;;5064752;28;20053;-56
2023/05/29 12:56:36;;;;;;;5.22;1.85;;;;;;;;;;5058157;28;20056;-57
2023/05/29 12:59:02;;;;;;;3.35;1.60;;;;;;;;;;5044947;28;20080;-57
2023/05/29 13:01:29;;;;;;;7.45;1.85;;;;;;;;;;5052891;28;20079;-58
2023/05/29 13:03:55;;;;;;;4.60;1.75;;;;;;;;;;5065456;28;20588;-55
2023/05/29 13:06:21;;;;;;;5.72;2.13;;;;;;;;;;5063164;28;20060;-58
2023/05/29 13:08:48;;;;;;;6.53;1.95;;;;;;;;;;5065609;28;20076;-58
2023/05/29 13:11:14;;;;;;;4.90;1.88;;;;;;;;;;5065036;28;20529;-57
2023/05/29 13:13:40;;;;;;;5.30;1.77;;;;;;;;;;5056736;28;20563;-58
2023/05/29 13:16:07;;;;;;;7.25;1.88;;;;;;;;;;5057558;28;20094;-57
2023/05/29 13:18:33;;;;;;;4.03;1.80;;;;;;;;;;5063976;28;20107;-56
2023/05/29 13:21:00;;;;;;;7.25;1.98;;;;;;;;;;5064116;28;20116;-58
2023/05/29 13:23:26;;;;;;;4.55;1.48;;;;;;;;;;5064009;28;20045;-55
2023/05/29 13:25:54;;;;;;;6.28;1.73;;;;;;;;;;5065376;28;20792;-56
2023/05/29 13:28:21;;;;;;;4.30;1.70;;;;;;;;;;5065288;28;20141;-54
2023/05/29 13:30:47;;;;;;;3.25;1.45;;;;;;;;;;5062583;28;20057;-55
2023/05/29 13:33:14;;;;;;;3.33;1.80;;;;;;;;;;5064685;28;20073;-56
2023/05/29 13:35:40;;;;;;;7.53;1.60;;;;;;;;;;5063945;28;20080;-53
2023/05/29 13:38:06;;;;;;;7.15;1.35;;;;;;;;;;5064495;28;20490;-57
2023/05/29 13:40:33;;;;;;;3.03;1.52;;;;;;;;;;5064286;28;20135;-58
2023/05/29 13:42:59;;;;;;;7.15;1.83;;;;;;;;;;5064255;28;20404;-56
2023/05/29 13:45:27;;;;;;;3.30;1.50;;;;;;;;;;5065234;28;21321;-55
2023/05/29 13:47:55;;;;;;;5.50;1.60;;;;;;;;;;5056117;28;20146;-59
2023/05/29 13:50:23;;;;;;;3.40;1.33;;;;;;;;;;5046323;28;20080;-54
2023/05/29 13:52:50;;;;;;;4.70;1.98;;;;;;;;;;5071797;28;20076;-55
2023/05/29 13:55:16;;;;;;;6.47;1.52;;;;;;;;;;5063675;28;20052;-58
2023/05/29 13:57:43;;;;;;;3.40;1.60;;;;;;;;;;5064274;28;20095;-57
2023/05/29 14:00:10;;;;;;;4.75;1.63;;;;;;;;;;5067204;28;20056;-56
2023/05/29 14:02:37;;;;;;;3.88;1.25;;;;;;;;;;5064126;28;20521;-53
2023/05/29 14:05:05;;;;;;;3.30;1.38;;;;;;;;;;5048865;28;20053;-56
2023/05/29 14:07:32;;;;;;;5.55;1.63;;;;;;;;;;5061471;28;20060;-55
2023/05/29 14:09:58;;;;;;;5.78;1.33;;;;;;;;;;5066460;28;20872;-58
2023/05/29 14:12:25;;;;;;;3.15;1.13;;;;;;;;;;5064642;28;20758;-54
2023/05/29 14:14:51;;;;;;;4.25;1.30;;;;;;;;;;5064368;28;20255;-53
2023/05/29 14:17:17;;;;;;;5.57;1.52;;;;;;;;;;5063945;28;20053;-54
2023/05/29 14:19:45;;;;;;;3.03;1.42;;;;;;;;;;5062815;28;20068;-56
2023/05/29 14:22:12;;;;;;;5.15;1.88;;;;;;;;;;5048212;28;20054;-58
2023/05/29 14:24:38;;;;;;;5.13;1.75;;;;;;;;;;5051501;28;20048;-55
2023/05/29 14:27:05;;;;;;;4.10;1.63;;;;;;;;;;5064041;28;20147;-57
2023/05/29 14:29:32;;;;;;;9.50;2.03;;;;;;;;;;5064647;28;20049;-58
2023/05/29 14:31:58;;;;;;;4.78;1.45;;;;;;;;;;5065709;28;20056;-58
2023/05/29 14:34:25;;;;;;;7.20;2.40;;;;;;;;;;5063047;28;20526;-53
2023/05/29 14:36:51;;;;;;;5.63;2.22;;;;;;;;;;5061972;28;21995;-56
2023/05/29 14:39:19;;;;;;;6.72;1.65;;;;;;;;;;5062033;28;20049;-56
2023/05/29 14:41:45;;;;;;;5.18;1.65;;;;;;;;;;5062657;28;20084;-58
2023/05/29 14:44:12;;;;;;;4.93;1.88;;;;;;;;;;5062940;28;20504;-57
2023/05/29 14:46:38;;;;;;;5.90;1.85;;;;;;;;;;5063540;28;20052;-57